Time;durP1;ratioP1;P1;durP2;ratioP2;P2;SDS_P1;SDS_P2;PMS_P1;PMS_P2;Temp;Humidity;BMP_temperature;BMP_pressure;BME280_temperature;BME280_humidity;BME280_pressure;Samples;Min_cycle;Max_cycle;Signal;HPM_P1;HPM_P2
2023/09/08 00:01:22;;;;;;;20.98;10.57;;;;;;;;;;5021345;28;20772;-96
2023/09/08 00:03:50;;;;;;;14.80;10.15;;;;;;;;;;5024128;28;20194;-96
2023/09/08 00:06:24;;;;;;;13.57;9.73;;;;;;;;;;5026757;28;20201;-96
2023/09/08 00:08:55;;;;;;;18.38;10.20;;;;;;;;;;5028378;28;20283;-96
2023/09/08 00:11:23;;;;;;;17.98;10.38;;;;;;;;;;5025835;28;20197;-96
2023/09/08 00:13:56;;;;;;;16.42;10.55;;;;;;;;;;5026035;28;20205;-96
2023/09/08 00:16:24;;;;;;;20.33;10.57;;;;;;;;;;5022350;28;20201;-96
2023/09/08 00:18:52;;;;;;;15.55;10.10;;;;;;;;;;5022474;28;20205;-96
2023/09/08 00:21:20;;;;;;;17.30;10.88;;;;;;;;;;5021940;28;20286;-96
2023/09/08 00:23:50;;;;;;;16.10;10.70;;;;;;;;;;5021690;28;20215;-96
2023/09/08 00:26:17;;;;;;;16.85;10.30;;;;;;;;;;5024901;28;20236;-96
2023/09/08 00:28:45;;;;;;;16.33;9.82;;;;;;;;;;5020948;28;20197;-95
2023/09/08 00:31:13;;;;;;;18.45;9.38;;;;;;;;;;5019940;28;20205;-96
2023/09/08 00:33:44;;;;;;;17.33;9.32;;;;;;;;;;5019700;28;20244;-96
2023/09/08 00:36:11;;;;;;;14.02;9.18;;;;;;;;;;5019846;28;20666;-96
2023/09/08 00:38:38;;;;;;;14.85;9.35;;;;;;;;;;5020961;28;20209;-96
2023/09/08 00:41:06;;;;;;;16.83;9.38;;;;;;;;;;5021141;28;20622;-96
2023/09/08 00:43:37;;;;;;;18.92;9.70;;;;;;;;;;5021278;28;20208;-96
2023/09/08 00:46:04;;;;;;;13.57;9.27;;;;;;;;;;5023049;28;20197;-96
2023/09/08 00:48:37;;;;;;;13.23;9.27;;;;;;;;;;5025876;28;20673;-96
2023/09/08 00:51:07;;;;;;;19.40;8.95;;;;;;;;;;5023805;28;20201;-96
2023/09/08 00:53:35;;;;;;;13.18;10.05;;;;;;;;;;5023606;28;20228;-96
2023/09/08 00:56:03;;;;;;;16.45;9.55;;;;;;;;;;5021430;28;20233;-96
2023/09/08 00:58:31;;;;;;;16.60;11.20;;;;;;;;;;5022716;28;20579;-96
2023/09/08 01:00:59;;;;;;;15.30;9.55;;;;;;;;;;5023654;28;20237;-96
2023/09/08 01:03:27;;;;;;;15.82;9.95;;;;;;;;;;5024138;28;20267;-96
2023/09/08 01:05:57;;;;;;;17.17;9.88;;;;;;;;;;5024383;28;20265;-96
2023/09/08 01:08:25;;;;;;;18.40;9.85;;;;;;;;;;5024728;28;20201;-96
2023/09/08 01:10:53;;;;;;;14.10;9.35;;;;;;;;;;5024037;28;20280;-96
2023/09/08 01:13:20;;;;;;;16.52;9.35;;;;;;;;;;5020848;28;20197;-96
2023/09/08 01:15:48;;;;;;;13.95;9.40;;;;;;;;;;5018733;28;20697;-96
2023/09/08 01:18:15;;;;;;;14.55;8.90;;;;;;;;;;5021006;28;20734;-96
2023/09/08 01:20:50;;;;;;;11.80;9.27;;;;;;;;;;5020029;28;20208;-96
2023/09/08 01:23:23;;;;;;;14.43;9.20;;;;;;;;;;5019271;28;20210;-96
2023/09/08 01:25:54;;;;;;;14.30;9.98;;;;;;;;;;5019002;28;20201;-96
2023/09/08 01:28:23;;;;;;;16.33;11.23;;;;;;;;;;5019457;28;20205;-96
2023/09/08 01:30:51;;;;;;;20.05;10.70;;;;;;;;;;5019171;28;20205;-96
2023/09/08 01:33:19;;;;;;;21.05;10.75;;;;;;;;;;5017319;28;20251;-96
2023/09/08 01:35:46;;;;;;;19.23;12.25;;;;;;;;;;5017524;28;20233;-96
2023/09/08 01:38:14;;;;;;;16.30;10.98;;;;;;;;;;5017831;28;20236;-96
2023/09/08 01:40:41;;;;;;;22.58;11.35;;;;;;;;;;5019093;28;20255;-96
2023/09/08 01:43:10;;;;;;;18.05;11.35;;;;;;;;;;5030732;28;20203;-96
2023/09/08 01:45:37;;;;;;;19.80;11.18;;;;;;;;;;5039333;28;20169;-96
2023/09/08 01:48:05;;;;;;;19.35;11.48;;;;;;;;;;5039309;28;20219;-96
2023/09/08 01:50:32;;;;;;;15.27;11.10;;;;;;;;;;5039056;28;20201;-96
2023/09/08 01:52:59;;;;;;;15.88;11.35;;;;;;;;;;5039029;28;20212;-96
2023/09/08 01:55:27;;;;;;;18.55;11.32;;;;;;;;;;5038421;28;20243;-95
2023/09/08 01:57:54;;;;;;;16.30;10.45;;;;;;;;;;5039270;28;20207;-96
2023/09/08 02:00:23;;;;;;;13.80;11.15;;;;;;;;;;5033455;28;20275;-96
2023/09/08 02:02:50;;;;;;;18.83;11.30;;;;;;;;;;5026326;28;20200;-95
2023/09/08 02:05:18;;;;;;;15.73;11.18;;;;;;;;;;5026964;28;20197;-96
2023/09/08 02:07:46;;;;;;;17.60;12.02;;;;;;;;;;5022359;28;20874;-96
2023/09/08 02:10:13;;;;;;;19.75;11.57;;;;;;;;;;5021000;28;20251;-96
2023/09/08 02:12:40;;;;;;;16.52;11.15;;;;;;;;;;5018206;28;20213;-96
2023/09/08 02:15:08;;;;;;;24.05;12.75;;;;;;;;;;5017771;28;20701;-96
2023/09/08 02:17:37;;;;;;;16.55;12.25;;;;;;;;;;5017193;28;20201;-96
2023/09/08 02:20:05;;;;;;;15.80;12.60;;;;;;;;;;5017175;28;20201;-96
2023/09/08 02:22:32;;;;;;;18.48;14.27;;;;;;;;;;5016812;28;20209;-96
2023/09/08 02:25:00;;;;;;;24.52;12.85;;;;;;;;;;5016193;28;20625;-96
2023/09/08 02:27:27;;;;;;;20.75;12.98;;;;;;;;;;5015522;28;20617;-96
2023/09/08 02:29:55;;;;;;;15.50;12.32;;;;;;;;;;5016552;28;20263;-96
2023/09/08 02:32:22;;;;;;;19.30;12.55;;;;;;;;;;5016194;28;20193;-96
2023/09/08 02:34:52;;;;;;;16.15;12.82;;;;;;;;;;5017282;28;20714;-95
2023/09/08 02:37:19;;;;;;;13.80;11.73;;;;;;;;;;5016813;28;20208;-96
2023/09/08 02:39:47;;;;;;;15.65;10.95;;;;;;;;;;5016298;28;20553;-96
2023/09/08 02:42:14;;;;;;;14.45;10.40;;;;;;;;;;5016185;28;20713;-96
2023/09/08 02:44:43;;;;;;;15.85;10.70;;;;;;;;;;5015688;28;20201;-96
2023/09/08 02:47:11;;;;;;;15.65;11.35;;;;;;;;;;5016166;28;20201;-96
2023/09/08 02:49:38;;;;;;;15.73;11.57;;;;;;;;;;5016144;28;20244;-96
2023/09/08 02:52:07;;;;;;;15.38;11.10;;;;;;;;;;5015911;28;20232;-96
2023/09/08 02:54:35;;;;;;;19.17;13.18;;;;;;;;;;4999435;28;20259;-96
2023/09/08 02:57:02;;;;;;;19.75;12.63;;;;;;;;;;4995906;28;20568;-96
2023/09/08 02:59:29;;;;;;;22.70;13.18;;;;;;;;;;4996464;28;20221;-96
2023/09/08 03:01:57;;;;;;;16.25;12.15;;;;;;;;;;4996639;28;20251;-96
2023/09/08 03:04:24;;;;;;;18.33;12.32;;;;;;;;;;4996684;28;20264;-96
2023/09/08 03:06:51;;;;;;;19.60;11.98;;;;;;;;;;4996587;28;20232;-96
2023/09/08 03:09:20;;;;;;;17.05;12.25;;;;;;;;;;4996737;28;20229;-96
2023/09/08 03:11:48;;;;;;;22.40;12.35;;;;;;;;;;4995602;28;20208;-95
2023/09/08 03:14:15;;;;;;;19.63;12.40;;;;;;;;;;4995052;28;20202;-95
2023/09/08 03:16:42;;;;;;;22.05;13.05;;;;;;;;;;4995793;28;20257;-96
2023/09/08 03:19:10;;;;;;;18.05;12.63;;;;;;;;;;4996994;28;20206;-96
2023/09/08 03:21:37;;;;;;;19.08;12.02;;;;;;;;;;4997775;28;20213;-95
2023/09/08 03:24:05;;;;;;;17.90;12.07;;;;;;;;;;5000050;28;20202;-96
2023/09/08 03:26:34;;;;;;;21.00;12.40;;;;;;;;;;4999958;28;20198;-96
2023/09/08 03:29:02;;;;;;;19.23;12.85;;;;;;;;;;4997797;28;20255;-95
2023/09/08 03:31:29;;;;;;;20.83;13.05;;;;;;;;;;4997493;28;20208;-96
2023/09/08 03:33:57;;;;;;;18.08;13.32;;;;;;;;;;4996940;28;20209;-96
2023/09/08 03:36:24;;;;;;;19.98;13.80;;;;;;;;;;4994962;28;20280;-96
2023/09/08 03:38:52;;;;;;;19.80;12.88;;;;;;;;;;4995562;28;20212;-95
2023/09/08 03:41:19;;;;;;;13.73;10.50;;;;;;;;;;4994749;28;20569;-95
2023/09/08 03:43:49;;;;;;;15.48;10.73;;;;;;;;;;4994987;28;20209;-96
2023/09/08 03:46:16;;;;;;;13.43;9.90;;;;;;;;;;4994957;28;20198;-96
2023/09/08 03:48:43;;;;;;;12.45;10.15;;;;;;;;;;4995091;28;20663;-96
2023/09/08 03:51:11;;;;;;;15.75;10.13;;;;;;;;;;4995037;28;20637;-96
2023/09/08 03:53:38;;;;;;;13.68;10.52;;;;;;;;;;4994423;28;20206;-96
2023/09/08 03:56:05;;;;;;;15.82;10.40;;;;;;;;;;4993573;28;20233;-96
2023/09/08 03:58:33;;;;;;;13.73;11.05;;;;;;;;;;4993963;28;20210;-96
2023/09/08 04:01:01;;;;;;;15.43;11.60;;;;;;;;;;4994594;28;20238;-96
2023/09/08 04:03:29;;;;;;;13.98;10.93;;;;;;;;;;4994315;28;20205;-96
2023/09/08 04:05:56;;;;;;;18.05;11.02;;;;;;;;;;4994743;28;20252;-96
2023/09/08 04:08:23;;;;;;;14.18;10.93;;;;;;;;;;4995146;28;20197;-95
2023/09/08 04:10:50;;;;;;;19.02;11.75;;;;;;;;;;4994411;28;20237;-96
2023/09/08 04:13:18;;;;;;;18.45;11.50;;;;;;;;;;4994381;28;20225;-96
2023/09/08 04:15:45;;;;;;;18.63;12.10;;;;;;;;;;4994618;28;20312;-96
2023/09/08 04:18:14;;;;;;;18.42;11.50;;;;;;;;;;5008255;28;20208;-96
2023/09/08 04:20:41;;;;;;;17.27;11.18;;;;;;;;;;5015177;28;20281;-96
2023/09/08 04:23:09;;;;;;;19.40;12.60;;;;;;;;;;5014114;28;20263;-96
2023/09/08 04:25:36;;;;;;;21.98;13.20;;;;;;;;;;5014127;28;20197;-96
2023/09/08 04:28:04;;;;;;;19.75;12.90;;;;;;;;;;5013696;28;20201;-95
2023/09/08 04:30:31;;;;;;;17.85;12.02;;;;;;;;;;5014573;28;20212;-95
2023/09/08 04:32:59;;;;;;;17.55;11.55;;;;;;;;;;5013921;28;20263;-95
2023/09/08 04:35:28;;;;;;;18.80;11.65;;;;;;;;;;5014632;28;20271;-96
2023/09/08 04:37:55;;;;;;;17.00;11.70;;;;;;;;;;5015456;28;20197;-95
2023/09/08 04:40:22;;;;;;;18.48;11.90;;;;;;;;;;5014783;28;20201;-95
2023/09/08 04:42:49;;;;;;;17.90;11.93;;;;;;;;;;5013699;28;20744;-96
2023/09/08 04:45:17;;;;;;;18.30;11.68;;;;;;;;;;5016488;28;20205;-96
2023/09/08 04:47:46;;;;;;;13.27;11.05;;;;;;;;;;5018023;28;20196;-96
2023/09/08 04:50:14;;;;;;;17.67;11.95;;;;;;;;;;5019048;28;20288;-96
2023/09/08 04:52:42;;;;;;;16.08;12.10;;;;;;;;;;5017992;28;21014;-96
2023/09/08 04:55:10;;;;;;;17.67;12.43;;;;;;;;;;5020906;28;20193;-96
2023/09/08 04:57:37;;;;;;;15.82;12.10;;;;;;;;;;5017765;28;20328;-95
2023/09/08 05:00:05;;;;;;;20.27;12.20;;;;;;;;;;5017611;28;20237;-96
2023/09/08 05:02:32;;;;;;;14.75;11.40;;;;;;;;;;5017923;28;20193;-95
2023/09/08 05:05:01;;;;;;;16.83;11.82;;;;;;;;;;5020054;28;20577;-96
2023/09/08 05:07:32;;;;;;;21.60;13.50;;;;;;;;;;5023129;28;20193;-96
2023/09/08 05:10:01;;;;;;;18.10;13.07;;;;;;;;;;5040032;28;20251;-91
2023/09/08 05:12:29;;;;;;;16.48;12.95;;;;;;;;;;5028703;28;20211;-92
2023/09/08 05:15:00;;;;;;;22.40;13.60;;;;;;;;;;5016315;28;20197;-91
2023/09/08 05:17:27;;;;;;;20.52;13.07;;;;;;;;;;5015237;28;20256;-89
2023/09/08 05:19:54;;;;;;;18.42;13.55;;;;;;;;;;5015255;28;20288;-92
2023/09/08 05:22:21;;;;;;;18.50;12.93;;;;;;;;;;5000961;28;20237;-90
2023/09/08 05:24:49;;;;;;;20.13;13.98;;;;;;;;;;4996016;28;20722;-94
2023/09/08 05:27:17;;;;;;;19.00;12.60;;;;;;;;;;5011706;28;20213;-92
2023/09/08 05:29:45;;;;;;;17.50;12.73;;;;;;;;;;5016380;28;20229;-92
2023/09/08 05:32:12;;;;;;;19.65;12.93;;;;;;;;;;5016021;28;20662;-93
2023/09/08 05:34:39;;;;;;;17.83;12.13;;;;;;;;;;5016388;28;20231;-92
2023/09/08 05:37:07;;;;;;;20.27;12.30;;;;;;;;;;5015846;28;20776;-92
2023/09/08 05:39:34;;;;;;;13.98;11.15;;;;;;;;;;5015307;28;20300;-90
2023/09/08 05:42:01;;;;;;;15.35;11.35;;;;;;;;;;5014645;28;20229;-92
2023/09/08 05:44:30;;;;;;;20.80;11.77;;;;;;;;;;5013273;28;20764;-93
2023/09/08 05:46:57;;;;;;;20.63;12.48;;;;;;;;;;5015644;28;20710;-93
2023/09/08 05:49:25;;;;;;;16.92;12.40;;;;;;;;;;5016345;28;20265;-93
2023/09/08 05:51:52;;;;;;;17.88;11.60;;;;;;;;;;5015796;28;20650;-93
2023/09/08 05:54:19;;;;;;;14.15;10.88;;;;;;;;;;5015232;28;20233;-93
2023/09/08 05:56:46;;;;;;;16.67;10.50;;;;;;;;;;5014325;28;20287;-92
2023/09/08 05:59:13;;;;;;;16.92;11.10;;;;;;;;;;5015542;28;20640;-93
2023/09/08 06:01:43;;;;;;;13.65;10.93;;;;;;;;;;5015736;28;20717;-93
2023/09/08 06:04:10;;;;;;;15.38;11.20;;;;;;;;;;5015881;28;20212;-94
2023/09/08 06:06:37;;;;;;;17.48;12.10;;;;;;;;;;5015682;28;20209;-94
2023/09/08 06:09:06;;;;;;;15.57;11.75;;;;;;;;;;5015356;28;20251;-93
2023/09/08 06:11:34;;;;;;;16.23;11.73;;;;;;;;;;5015377;28;20209;-94
2023/09/08 06:14:01;;;;;;;17.27;11.90;;;;;;;;;;5015241;28;20212;-94
2023/09/08 06:16:29;;;;;;;19.90;11.93;;;;;;;;;;5015781;28;20279;-94
2023/09/08 06:18:57;;;;;;;20.83;12.27;;;;;;;;;;5015259;28;20292;-93
2023/09/08 06:21:24;;;;;;;12.80;11.10;;;;;;;;;;5015022;28;20225;-93
2023/09/08 06:23:52;;;;;;;18.90;12.38;;;;;;;;;;5015653;28;20239;-93
2023/09/08 06:26:19;;;;;;;17.45;12.15;;;;;;;;;;5015400;28;20225;-93
2023/09/08 06:28:46;;;;;;;20.17;12.60;;;;;;;;;;5015218;28;20231;-93
2023/09/08 06:31:14;;;;;;;18.85;11.85;;;;;;;;;;5015388;28;20748;-93
2023/09/08 06:33:41;;;;;;;14.43;11.25;;;;;;;;;;5015018;28;20201;-93
2023/09/08 06:36:10;;;;;;;18.92;11.43;;;;;;;;;;5014987;28;20263;-93
2023/09/08 06:38:37;;;;;;;15.40;11.75;;;;;;;;;;5014605;28;20671;-93
2023/09/08 06:41:10;;;;;;;18.67;12.18;;;;;;;;;;5015064;28;20285;-93
2023/09/08 06:43:37;;;;;;;20.05;12.18;;;;;;;;;;5014501;28;20651;-93
2023/09/08 06:46:04;;;;;;;17.52;11.05;;;;;;;;;;5014800;28;20288;-94
2023/09/08 06:48:31;;;;;;;15.57;10.85;;;;;;;;;;5015274;28;20661;-93
2023/09/08 06:50:58;;;;;;;18.05;11.23;;;;;;;;;;5014805;28;20213;-93
2023/09/08 06:53:27;;;;;;;15.70;11.10;;;;;;;;;;5014582;28;20252;-93
2023/09/08 06:55:54;;;;;;;22.33;11.93;;;;;;;;;;5014723;28;20257;-93
2023/09/08 06:58:22;;;;;;;23.00;11.52;;;;;;;;;;5014518;28;20284;-93
2023/09/08 07:00:49;;;;;;;15.75;10.88;;;;;;;;;;5014434;28;20779;-92
2023/09/08 07:03:17;;;;;;;15.95;12.15;;;;;;;;;;5015008;28;20288;-93
2023/09/08 07:05:44;;;;;;;14.98;11.00;;;;;;;;;;5014275;28;20632;-93
2023/09/08 07:08:11;;;;;;;18.15;12.20;;;;;;;;;;5014304;28;20216;-94
2023/09/08 07:10:40;;;;;;;17.70;12.35;;;;;;;;;;5014475;28;20205;-93
2023/09/08 07:13:07;;;;;;;17.40;11.55;;;;;;;;;;5015028;28;20205;-93
2023/09/08 07:15:34;;;;;;;19.23;12.30;;;;;;;;;;5014324;28;20658;-93
2023/09/08 07:18:01;;;;;;;16.02;12.63;;;;;;;;;;5014032;28;20316;-93
2023/09/08 07:20:30;;;;;;;18.30;11.73;;;;;;;;;;5013612;28;20284;-93
2023/09/08 07:22:57;;;;;;;15.70;11.88;;;;;;;;;;5013760;28;20236;-93
2023/09/08 07:25:24;;;;;;;18.02;12.48;;;;;;;;;;5014141;28;20210;-93
2023/09/08 07:27:53;;;;;;;19.13;11.55;;;;;;;;;;5014368;28;20261;-94
2023/09/08 07:30:20;;;;;;;17.48;11.18;;;;;;;;;;5014219;28;20211;-93
2023/09/08 07:32:48;;;;;;;17.90;11.13;;;;;;;;;;5014244;28;20647;-93
2023/09/08 07:35:16;;;;;;;15.90;11.05;;;;;;;;;;5013876;28;20228;-92
2023/09/08 07:37:44;;;;;;;15.45;11.15;;;;;;;;;;5014414;28;20252;-92
2023/09/08 07:40:11;;;;;;;12.60;9.32;;;;;;;;;;5014118;28;20239;-93
2023/09/08 07:42:39;;;;;;;15.60;10.23;;;;;;;;;;5014198;28;20602;-94
2023/09/08 07:45:10;;;;;;;14.25;10.50;;;;;;;;;;5014465;28;20185;-92
2023/09/08 07:47:38;;;;;;;18.95;11.32;;;;;;;;;;5014066;28;20197;-92
2023/09/08 07:50:20;;;;;;;13.82;11.20;;;;;;;;;;5013477;28;20193;-92
2023/09/08 07:52:48;;;;;;;16.10;10.05;;;;;;;;;;5012059;28;20201;-92
2023/09/08 07:55:15;;;;;;;14.88;9.40;;;;;;;;;;5013914;28;20197;-92
2023/09/08 07:57:43;;;;;;;12.20;8.73;;;;;;;;;;5013780;28;20315;-93
2023/09/08 08:00:12;;;;;;;12.82;8.63;;;;;;;;;;5013615;28;20241;-92
2023/09/08 08:02:39;;;;;;;10.27;8.32;;;;;;;;;;5013757;28;20280;-92
2023/09/08 08:05:07;;;;;;;13.18;8.07;;;;;;;;;;5013531;28;20634;-92
2023/09/08 08:07:34;;;;;;;15.10;8.45;;;;;;;;;;5013544;28;20677;-92
2023/09/08 08:10:02;;;;;;;18.17;8.23;;;;;;;;;;5013673;28;20228;-91
2023/09/08 08:12:29;;;;;;;11.15;7.05;;;;;;;;;;5013529;28;20236;-91
2023/09/08 08:14:56;;;;;;;16.98;7.68;;;;;;;;;;5014096;28;20626;-91
2023/09/08 08:17:26;;;;;;;16.88;8.23;;;;;;;;;;5012840;28;20311;-91
2023/09/08 08:19:53;;;;;;;11.07;7.85;;;;;;;;;;5014849;28;20201;-91
2023/09/08 08:22:20;;;;;;;14.00;7.72;;;;;;;;;;5017578;28;20283;-91
2023/09/08 08:24:47;;;;;;;14.50;7.50;;;;;;;;;;5017594;28;20301;-92
2023/09/08 08:27:15;;;;;;;11.98;7.25;;;;;;;;;;5017565;28;20225;-89
2023/09/08 08:29:42;;;;;;;13.15;8.05;;;;;;;;;;5017174;28;20325;-90
2023/09/08 08:32:09;;;;;;;19.33;8.15;;;;;;;;;;5017543;28;20220;-91
2023/09/08 08:34:38;;;;;;;14.70;8.00;;;;;;;;;;5016920;28;20232;-91
2023/09/08 08:37:05;;;;;;;14.40;8.25;;;;;;;;;;5017054;28;20245;-91
2023/09/08 08:39:32;;;;;;;17.42;8.50;;;;;;;;;;5016867;28;20271;-92
2023/09/08 08:41:59;;;;;;;13.57;8.15;;;;;;;;;;5016950;28;20233;-92
2023/09/08 08:44:27;;;;;;;12.40;7.43;;;;;;;;;;5017075;28;20718;-92
2023/09/08 08:46:55;;;;;;;15.38;7.85;;;;;;;;;;5016812;28;20225;-92
2023/09/08 08:49:22;;;;;;;20.38;7.72;;;;;;;;;;5016712;28;20300;-91
2023/09/08 08:51:51;;;;;;;15.02;7.40;;;;;;;;;;5016683;28;20239;-91
2023/09/08 08:54:19;;;;;;;14.40;8.15;;;;;;;;;;5016522;28;20276;-91
2023/09/08 08:56:46;;;;;;;16.25;7.95;;;;;;;;;;5016765;28;20665;-91
2023/09/08 08:59:14;;;;;;;14.07;7.18;;;;;;;;;;5016706;28;20571;-92
2023/09/08 09:01:43;;;;;;;14.95;7.53;;;;;;;;;;5015991;28;20265;-92
2023/09/08 09:04:11;;;;;;;13.95;8.10;;;;;;;;;;5016799;28;20221;-90
2023/09/08 09:06:38;;;;;;;14.40;7.60;;;;;;;;;;5016606;28;20205;-92
2023/09/08 09:09:08;;;;;;;17.45;7.65;;;;;;;;;;5016859;28;20256;-91
2023/09/08 09:11:35;;;;;;;12.93;6.93;;;;;;;;;;5016454;28;20236;-92
2023/09/08 09:14:04;;;;;;;15.20;7.03;;;;;;;;;;5016347;28;20209;-91
2023/09/08 09:16:31;;;;;;;15.98;7.68;;;;;;;;;;5015922;28;20197;-91
2023/09/08 09:18:59;;;;;;;13.27;6.57;;;;;;;;;;5016262;28;20209;-91
2023/09/08 09:21:42;;;;;;;13.77;6.70;;;;;;;;;;5016430;28;20232;-91
2023/09/08 09:24:15;;;;;;;15.00;6.30;;;;;;;;;;5016575;28;20267;-91
2023/09/08 09:26:42;;;;;;;14.50;6.70;;;;;;;;;;5015843;28;20259;-91
2023/09/08 09:29:13;;;;;;;12.73;6.28;;;;;;;;;;5015673;28;20224;-90
2023/09/08 09:31:52;;;;;;;13.93;6.00;;;;;;;;;;5015552;28;20203;-91
2023/09/08 09:34:20;;;;;;;10.73;5.95;;;;;;;;;;5016058;28;20203;-91
2023/09/08 09:36:48;;;;;;;11.50;6.25;;;;;;;;;;5016033;28;20200;-91
2023/09/08 09:39:19;;;;;;;11.80;6.13;;;;;;;;;;5015819;28;20665;-90
2023/09/08 09:41:47;;;;;;;11.93;6.53;;;;;;;;;;5015408;28;20704;-90
2023/09/08 09:44:14;;;;;;;13.23;6.22;;;;;;;;;;5015731;28;20221;-92
2023/09/08 09:46:45;;;;;;;20.42;6.43;;;;;;;;;;5015619;28;20267;-90
2023/09/08 09:49:13;;;;;;;13.27;6.07;;;;;;;;;;5015924;28;20220;-91
2023/09/08 09:51:41;;;;;;;13.88;6.10;;;;;;;;;;5015483;28;20566;-91
2023/09/08 09:54:09;;;;;;;17.42;6.97;;;;;;;;;;5015907;28;20204;-90
2023/09/08 09:56:38;;;;;;;13.98;6.82;;;;;;;;;;5015406;28;20279;-92
2023/09/08 09:59:06;;;;;;;11.00;5.70;;;;;;;;;;5015096;28;20319;-90
2023/09/08 10:01:33;;;;;;;11.40;5.70;;;;;;;;;;5014635;28;20643;-91
2023/09/08 10:04:03;;;;;;;9.88;5.35;;;;;;;;;;5015595;28;20287;-91
2023/09/08 10:06:32;;;;;;;15.88;5.78;;;;;;;;;;5015235;28;20643;-92
2023/09/08 10:09:00;;;;;;;14.88;5.78;;;;;;;;;;5014997;28;20211;-91
2023/09/08 10:11:30;;;;;;;12.35;5.68;;;;;;;;;;5015002;28;20197;-91
2023/09/08 10:14:00;;;;;;;11.40;5.03;;;;;;;;;;5014931;28;20189;-91
2023/09/08 10:16:28;;;;;;;12.10;5.63;;;;;;;;;;5014856;28;20201;-91
2023/09/08 10:18:58;;;;;;;8.38;5.10;;;;;;;;;;5014577;28;20624;-92
2023/09/08 10:21:28;;;;;;;10.63;5.85;;;;;;;;;;5014372;28;20733;-91
2023/09/08 10:23:59;;;;;;;15.05;6.32;;;;;;;;;;5015238;28;20546;-90
2023/09/08 10:26:28;;;;;;;12.25;5.47;;;;;;;;;;5014800;28;20744;-92
2023/09/08 10:28:56;;;;;;;13.88;5.82;;;;;;;;;;5014426;28;20549;-92
2023/09/08 10:31:26;;;;;;;9.27;5.78;;;;;;;;;;5015315;28;20280;-92
2023/09/08 10:33:53;;;;;;;10.38;5.15;;;;;;;;;;5014999;28;20205;-91
2023/09/08 10:36:21;;;;;;;12.52;5.30;;;;;;;;;;5015252;28;20645;-91
2023/09/08 10:38:50;;;;;;;12.88;5.75;;;;;;;;;;5014632;28;20248;-91
2023/09/08 10:41:32;;;;;;;9.50;5.90;;;;;;;;;;5015190;28;20200;-92
2023/09/08 10:44:00;;;;;;;10.98;5.50;;;;;;;;;;5013715;28;20224;-92
2023/09/08 10:46:30;;;;;;;14.80;5.65;;;;;;;;;;5014369;28;20611;-90
2023/09/08 10:49:02;;;;;;;12.63;5.70;;;;;;;;;;5014241;28;20662;-91
2023/09/08 10:51:29;;;;;;;9.98;5.03;;;;;;;;;;5014841;28;20197;-91
2023/09/08 10:53:57;;;;;;;8.52;5.18;;;;;;;;;;5014398;28;20258;-91
2023/09/08 10:56:28;;;;;;;11.27;5.22;;;;;;;;;;5014327;28;20201;-91
2023/09/08 10:58:55;;;;;;;13.13;4.97;;;;;;;;;;5014009;28;20260;-91
2023/09/08 11:01:26;;;;;;;9.30;5.07;;;;;;;;;;5013989;28;20666;-91
2023/09/08 11:03:55;;;;;;;12.18;5.38;;;;;;;;;;5014670;28;20227;-91
2023/09/08 11:06:23;;;;;;;12.45;5.50;;;;;;;;;;5014566;28;20271;-90
2023/09/08 11:08:53;;;;;;;19.83;5.93;;;;;;;;;;5014394;28;20205;-91
2023/09/08 11:11:20;;;;;;;15.05;5.53;;;;;;;;;;5014152;28;20624;-92
2023/09/08 11:13:47;;;;;;;11.07;5.68;;;;;;;;;;5013637;28;20240;-92
2023/09/08 11:16:15;;;;;;;8.88;5.10;;;;;;;;;;5019970;28;20292;-91
2023/09/08 11:18:43;;;;;;;9.40;5.50;;;;;;;;;;5027365;28;20251;-92
2023/09/08 11:21:12;;;;;;;12.30;5.50;;;;;;;;;;5029157;28;20203;-91
2023/09/08 11:23:39;;;;;;;12.55;5.55;;;;;;;;;;5027722;28;20205;-90
2023/09/08 11:26:08;;;;;;;9.38;5.30;;;;;;;;;;5023002;28;20197;-92
2023/09/08 11:28:36;;;;;;;9.10;5.20;;;;;;;;;;5014354;28;20200;-91
2023/09/08 11:31:04;;;;;;;10.45;5.20;;;;;;;;;;5014490;28;20197;-92
2023/09/08 11:33:38;;;;;;;9.93;5.20;;;;;;;;;;5014153;28;20568;-90
2023/09/08 11:36:12;;;;;;;13.77;5.60;;;;;;;;;;5013966;28;20671;-91
2023/09/08 11:38:42;;;;;;;17.10;5.28;;;;;;;;;;5013812;28;20797;-92
2023/09/08 11:41:09;;;;;;;11.32;5.95;;;;;;;;;;5013251;28;20198;-92
2023/09/08 11:43:36;;;;;;;11.63;5.22;;;;;;;;;;5014009;28;20285;-91
2023/09/08 11:46:03;;;;;;;10.95;5.60;;;;;;;;;;5013838;28;20200;-91
2023/09/08 11:48:31;;;;;;;9.65;5.20;;;;;;;;;;5013710;28;20225;-91
2023/09/08 11:50:58;;;;;;;9.45;5.30;;;;;;;;;;5014081;28;20225;-91
2023/09/08 11:53:27;;;;;;;11.95;5.30;;;;;;;;;;5014110;28;20204;-92
2023/09/08 11:55:55;;;;;;;10.13;5.60;;;;;;;;;;5016315;28;20255;-91
2023/09/08 11:58:23;;;;;;;9.80;5.20;;;;;;;;;;5018800;28;20271;-90
2023/09/08 12:00:51;;;;;;;9.40;5.82;;;;;;;;;;5017355;28;20262;-91
2023/09/08 12:03:18;;;;;;;13.40;5.97;;;;;;;;;;5018085;28;20577;-92
2023/09/08 12:05:46;;;;;;;11.93;5.85;;;;;;;;;;5017786;28;21306;-92
2023/09/08 12:08:14;;;;;;;10.23;5.78;;;;;;;;;;5017836;28;20549;-91
2023/09/08 12:10:42;;;;;;;15.10;6.68;;;;;;;;;;5017240;28;20256;-91
2023/09/08 12:13:13;;;;;;;14.65;6.93;;;;;;;;;;5017424;28;20200;-91
2023/09/08 12:15:42;;;;;;;13.38;6.47;;;;;;;;;;5017727;28;20220;-91
2023/09/08 12:18:09;;;;;;;19.52;6.70;;;;;;;;;;5017204;28;20235;-91
2023/09/08 12:20:37;;;;;;;12.98;6.05;;;;;;;;;;5017227;28;20224;-90
2023/09/08 12:23:05;;;;;;;14.40;6.32;;;;;;;;;;5017316;28;20234;-91
2023/09/08 12:25:33;;;;;;;16.17;6.50;;;;;;;;;;5016599;28;20205;-88
2023/09/08 12:28:01;;;;;;;11.25;6.57;;;;;;;;;;5016965;28;20205;-90
2023/09/08 12:30:32;;;;;;;12.50;7.03;;;;;;;;;;5016982;28;20232;-91
2023/09/08 12:33:00;;;;;;;15.30;6.50;;;;;;;;;;5017081;28;20274;-91
2023/09/08 12:35:28;;;;;;;12.02;5.97;;;;;;;;;;5016870;28;20575;-91
2023/09/08 12:37:58;;;;;;;15.90;6.63;;;;;;;;;;5016889;28;20232;-91
2023/09/08 12:40:26;;;;;;;13.40;6.07;;;;;;;;;;5016122;28;20195;-90
2023/09/08 12:42:53;;;;;;;14.75;6.15;;;;;;;;;;5016674;28;20236;-91
2023/09/08 12:45:22;;;;;;;14.45;6.35;;;;;;;;;;5017164;28;20641;-91
2023/09/08 12:47:51;;;;;;;12.88;5.50;;;;;;;;;;5018703;28;20579;-91
2023/09/08 12:50:18;;;;;;;13.05;5.70;;;;;;;;;;5016133;28;20665;-91
2023/09/08 12:52:45;;;;;;;9.48;5.35;;;;;;;;;;5000697;28;20200;-90
2023/09/08 12:55:13;;;;;;;16.17;6.15;;;;;;;;;;5017739;28;20193;-90
2023/09/08 12:57:40;;;;;;;11.18;5.60;;;;;;;;;;5001603;28;20299;-91
2023/09/08 13:00:08;;;;;;;13.73;5.82;;;;;;;;;;5016574;28;20236;-92
2023/09/08 13:02:35;;;;;;;12.43;5.63;;;;;;;;;;5017156;28;20196;-92
2023/09/08 13:05:04;;;;;;;16.73;5.80;;;;;;;;;;5016352;28;20634;-90
2023/09/08 13:07:32;;;;;;;10.00;5.20;;;;;;;;;;5019899;28;20240;-90
2023/09/08 13:09:59;;;;;;;9.18;5.72;;;;;;;;;;5019514;28;20256;-90
2023/09/08 13:12:26;;;;;;;12.90;5.65;;;;;;;;;;5018731;28;20243;-90
2023/09/08 13:14:53;;;;;;;10.15;4.70;;;;;;;;;;5016778;28;20287;-90
2023/09/08 13:17:21;;;;;;;12.65;5.40;;;;;;;;;;5016041;28;20578;-91
2023/09/08 13:19:48;;;;;;;11.13;6.13;;;;;;;;;;5015810;28;20228;-91
2023/09/08 13:22:17;;;;;;;9.82;5.40;;;;;;;;;;5016110;28;20201;-90
2023/09/08 13:24:44;;;;;;;16.38;6.45;;;;;;;;;;5016077;28;20232;-90
2023/09/08 13:27:12;;;;;;;8.35;4.80;;;;;;;;;;5016280;28;20281;-89
2023/09/08 13:29:39;;;;;;;11.93;5.60;;;;;;;;;;5015941;28;20208;-90
2023/09/08 13:32:07;;;;;;;15.85;5.85;;;;;;;;;;5015800;28;20255;-91
2023/09/08 13:34:34;;;;;;;12.23;5.72;;;;;;;;;;5015885;28;20224;-91
2023/09/08 13:37:03;;;;;;;15.40;5.97;;;;;;;;;;5015970;28;20200;-91
2023/09/08 13:39:40;;;;;;;13.48;5.55;;;;;;;;;;5015534;28;20268;-92
2023/09/08 13:42:07;;;;;;;10.50;5.50;;;;;;;;;;5016009;28;20200;-91
2023/09/08 13:44:34;;;;;;;11.55;6.15;;;;;;;;;;5015953;28;20227;-90
2023/09/08 13:47:02;;;;;;;14.52;5.95;;;;;;;;;;5015582;28;20288;-91
2023/09/08 13:49:29;;;;;;;12.07;5.40;;;;;;;;;;5015296;28;20232;-90
2023/09/08 13:51:56;;;;;;;14.90;5.57;;;;;;;;;;5014575;28;20235;-91
2023/09/08 13:54:24;;;;;;;13.63;5.65;;;;;;;;;;5015167;28;20673;-91
2023/09/08 13:57:01;;;;;;;10.43;5.63;;;;;;;;;;5015009;28;20211;-90
2023/09/08 13:59:29;;;;;;;14.82;5.53;;;;;;;;;;5014782;28;20319;-90
2023/09/08 14:01:57;;;;;;;13.32;5.45;;;;;;;;;;5015031;28;20276;-90
2023/09/08 14:04:24;;;;;;;13.95;5.57;;;;;;;;;;5015130;28;20220;-91
2023/09/08 14:06:51;;;;;;;10.60;5.80;;;;;;;;;;5014852;28;20606;-88
2023/09/08 14:09:19;;;;;;;7.88;5.25;;;;;;;;;;5015262;28;20227;-91
2023/09/08 14:11:46;;;;;;;12.88;5.65;;;;;;;;;;5015630;28;20200;-90
2023/09/08 14:14:15;;;;;;;15.27;5.97;;;;;;;;;;5014909;28;20228;-90
2023/09/08 14:16:42;;;;;;;10.02;5.28;;;;;;;;;;5015081;28;20204;-90
2023/09/08 14:19:09;;;;;;;26.70;5.70;;;;;;;;;;5014188;28;20336;-91
2023/09/08 14:21:39;;;;;;;16.98;5.97;;;;;;;;;;5014406;28;20193;-90
2023/09/08 14:24:06;;;;;;;11.05;5.60;;;;;;;;;;5015109;28;20287;-91
2023/09/08 14:26:34;;;;;;;14.65;5.53;;;;;;;;;;5015063;28;20228;-90
2023/09/08 14:29:02;;;;;;;13.95;5.30;;;;;;;;;;5015240;28;20196;-91